Time;durP1;ratioP1;P1;durP2;ratioP2;P2;SDS_P1;SDS_P2;PMS_P1;PMS_P2;Temp;Humidity;BMP_temperature;BMP_pressure;BME280_temperature;BME280_humidity;BME280_pressure;Samples;Min_cycle;Max_cycle;Signal;HPM_P1;HPM_P2
2022/11/03 06:11:29;;;;;;;;;7.00;3.25;;;;;14.11;67.31;100816.13;3045059;22;46372;-81
2022/11/03 06:12:39;;;;;;;;;5.50;3.00;;;;;14.10;67.51;100814.38;3058374;22;45152;-80
2022/11/03 06:13:50;;;;;;;;;6.00;4.75;;;;;14.11;67.07;100816.13;3041708;22;47021;-81
2022/11/03 06:15:00;;;;;;;;;4.50;4.50;;;;;14.12;67.43;100803.75;3047043;22;44597;-81
2022/11/03 06:16:37;;;;;;;;;7.25;6.25;;;;;14.13;67.37;100808.09;3059037;22;46991;-81
2022/11/03 06:17:47;;;;;;;;;5.75;4.00;;;;;14.10;67.24;100805.63;3059568;22;45243;-80
2022/11/03 06:19:00;;;;;;;;;5.75;3.25;;;;;14.12;67.10;100807.28;3059156;22;46393;-81
2022/11/03 06:20:17;;;;;;;;;9.25;3.50;;;;;14.13;67.18;100803.69;3059361;22;45136;-86
2022/11/03 06:21:27;;;;;;;;;3.25;3.25;;;;;14.13;67.48;100800.19;3059032;22;46579;-81
2022/11/03 06:22:38;;;;;;;;;3.75;3.25;;;;;14.14;67.11;100800.13;3058500;22;45274;-82
2022/11/03 06:23:48;;;;;;;;;5.50;5.25;;;;;14.16;67.06;100792.09;3056360;22;47850;-82
2022/11/03 06:25:10;;;;;;;;;4.25;2.50;;;;;14.16;67.05;100792.97;3058181;22;45553;-82
2022/11/03 06:26:23;;;;;;;;;7.25;4.25;;;;;14.18;67.21;100790.25;3057847;22;45306;-82
2022/11/03 06:27:34;;;;;;;;;4.00;3.00;;;;;14.17;66.97;100789.38;3057525;22;44827;-82
2022/11/03 06:28:46;;;;;;;;;7.75;6.75;;;;;14.20;67.17;100788.38;3042062;22;48422;-82
2022/11/03 06:30:02;;;;;;;;;5.50;5.00;;;;;14.20;67.09;100783.09;3047615;22;44573;-82
2022/11/03 06:31:19;;;;;;;;;6.00;4.50;;;;;14.22;67.35;100777.75;3057936;22;46679;-82
2022/11/03 06:32:32;;;;;;;;;6.50;4.00;;;;;14.23;67.02;100777.66;3058627;22;45159;-82
2022/11/03 06:33:43;;;;;;;;;8.50;5.00;;;;;14.23;66.99;100772.38;3042121;22;47114;-82
2022/11/03 06:34:56;;;;;;;;;6.50;3.25;;;;;14.23;66.70;100767.09;3046442;22;45195;-81
2022/11/03 06:36:20;;;;;;;;;4.50;3.75;;;;;14.24;66.67;100768.81;3058022;22;47093;-82
2022/11/03 06:37:31;;;;;;;;;8.00;5.00;;;;;14.24;66.86;100762.66;3042098;22;45231;-81
2022/11/03 06:39:05;;;;;;;;;3.75;3.75;;;;;14.22;66.95;100764.53;3047301;22;45385;-82
2022/11/03 06:40:16;;;;;;;;;5.00;3.00;;;;;14.25;66.90;100759.94;3034939;22;45326;-81
2022/11/03 06:41:29;;;;;;;;;5.50;4.50;;;;;14.26;66.94;100755.53;3057811;22;45333;-82
2022/11/03 06:42:40;;;;;;;;;6.25;3.50;;;;;14.27;67.18;100760.72;3041274;22;45274;-83
2022/11/03 06:43:51;;;;;;;;;6.50;3.25;;;;;14.28;66.83;100753.66;3031141;22;47836;-82
2022/11/03 06:45:13;;;;;;;;;6.50;4.00;;;;;14.32;66.86;100754.38;3047301;22;45278;-82
2022/11/03 06:46:25;;;;;;;;;4.25;4.00;;;;;14.33;66.85;100753.44;3058704;22;46369;-82
2022/11/03 06:47:38;;;;;;;;;5.00;4.00;;;;;14.33;66.85;100751.66;3058131;22;45250;-82
2022/11/03 06:48:51;;;;;;;;;3.00;3.00;;;;;14.35;66.85;100748.91;3058200;22;45615;-81
2022/11/03 06:50:18;;;;;;;;;5.25;4.00;;;;;14.34;66.69;100748.09;3042197;22;45251;-82
2022/11/03 06:51:29;;;;;;;;;3.50;3.00;;;;;14.35;66.72;100746.28;3050370;22;45328;-82
2022/11/03 06:52:46;;;;;;;;;6.50;4.00;;;;;14.34;66.61;100740.16;3042175;22;45294;-82
2022/11/03 06:53:58;;;;;;;;;8.00;5.50;;;;;14.36;66.50;100745.34;3048431;22;46758;-82
2022/11/03 06:55:25;;;;;;;;;6.25;3.00;;;;;14.36;66.58;100748.84;3058158;22;44574;-82
2022/11/03 06:56:36;;;;;;;;;6.00;4.50;;;;;14.35;66.61;100738.34;3057218;22;46202;-82
2022/11/03 06:57:47;;;;;;;;;5.25;3.25;;;;;14.35;66.55;100743.63;3057076;22;45261;-82
2022/11/03 06:58:59;;;;;;;;;3.75;3.25;;;;;14.36;66.36;100738.28;3057422;22;46629;-82
2022/11/03 07:00:19;;;;;;;;;7.25;3.25;;;;;14.37;66.26;100733.84;3058551;22;45246;-82
2022/11/03 07:01:34;;;;;;;;;4.00;3.75;;;;;14.36;66.48;100735.63;3057876;22;46287;-82
2022/11/03 07:03:22;;;;;;;;;4.00;4.00;;;;;14.35;66.47;100723.34;3042238;22;45313;-82
2022/11/03 07:04:33;;;;;;;;;5.50;3.00;;;;;14.38;66.46;100725.84;3054248;22;47230;-82
2022/11/03 07:05:44;;;;;;;;;4.50;4.25;;;;;14.40;66.07;100720.47;3058015;22;45207;-82
2022/11/03 07:06:59;;;;;;;;;3.50;2.50;;;;;14.39;66.17;100713.47;3058924;22;45425;-82
2022/11/03 07:08:26;;;;;;;;;3.00;3.00;;;;;14.43;66.22;100714.16;3059408;22;44666;-82
2022/11/03 07:09:36;;;;;;;;;4.00;3.50;;;;;14.44;66.25;100707.97;3042505;22;48145;-81
2022/11/03 07:10:49;;;;;;;;;3.25;3.00;;;;;14.46;65.85;100703.44;3047172;22;45258;-81
2022/11/03 07:12:00;;;;;;;;;4.50;3.00;;;;;14.47;66.19;100705.16;3042217;22;48305;-82
2022/11/03 07:13:17;;;;;;;;;3.00;3.00;;;;;14.45;66.22;100692.00;3047380;22;45124;-82
2022/11/03 07:14:30;;;;;;;;;5.75;3.00;;;;;14.48;66.16;100698.94;3058740;22;45352;-81
2022/11/03 07:15:43;;;;;;;;;3.00;3.00;;;;;14.47;66.24;100702.53;3059163;22;45096;-81
2022/11/03 07:16:56;;;;;;;;;4.50;3.50;;;;;14.46;66.07;100711.38;3059015;22;46577;-81
2022/11/03 07:18:18;;;;;;;;;3.75;3.75;;;;;14.47;65.73;100713.09;3059196;22;45108;-82
2022/11/03 07:19:33;;;;;;;;;4.50;2.75;;;;;14.48;65.95;100709.50;3042939;22;46974;-82
2022/11/03 07:20:43;;;;;;;;;3.00;3.00;;;;;14.46;66.11;100704.31;3048741;22;45193;-82
2022/11/03 07:22:03;;;;;;;;;3.25;1.00;;;;;14.47;65.91;100694.59;3059358;22;46407;-82
2022/11/03 07:23:20;;;;;;;;;4.25;3.25;;;;;14.49;65.95;100692.72;3059020;22;45187;-82
2022/11/03 07:24:37;;;;;;;;;4.25;3.50;;;;;14.49;65.98;100668.91;3059499;22;46468;-82
2022/11/03 07:25:53;;;;;;;;;1.75;1.75;;;;;14.50;65.80;100678.53;3042329;22;45279;-82
2022/11/03 07:27:24;;;;;;;;;3.00;2.00;;;;;14.50;65.84;100678.53;3049481;22;46252;-82
2022/11/03 07:28:38;;;;;;;;;3.75;3.75;;;;;14.51;65.95;100669.69;3059511;22;45246;-82
2022/11/03 07:29:50;;;;;;;;;4.75;4.00;;;;;14.51;65.67;100677.63;3059171;22;46267;-81
2022/11/03 07:31:09;;;;;;;;;6.00;2.75;;;;;14.48;65.70;100683.94;3041821;22;45277;-82
2022/11/03 07:32:23;;;;;;;;;4.75;2.25;;;;;14.48;65.62;100676.00;3050078;22;46482;-82
2022/11/03 07:33:33;;;;;;;;;4.25;3.75;;;;;14.49;65.76;100679.50;3059612;22;45174;-82
2022/11/03 07:34:44;;;;;;;;;3.25;3.25;;;;;14.48;65.83;100680.41;3059369;22;45156;-82
2022/11/03 07:35:57;;;;;;;;;5.00;3.75;;;;;14.49;65.83;100672.41;3042999;22;45115;-82
2022/11/03 07:37:17;;;;;;;;;5.00;3.00;;;;;14.50;65.64;100662.69;3032697;22;47196;-82
2022/11/03 07:38:29;;;;;;;;;3.00;3.00;;;;;14.53;66.13;100659.88;3050043;22;45231;-82
2022/11/03 07:39:39;;;;;;;;;2.25;1.75;;;;;14.55;65.47;100654.50;3059638;22;46178;-82
2022/11/03 07:40:51;;;;;;;;;5.25;3.00;;;;;14.56;65.73;100646.50;3059588;22;45147;-82
2022/11/03 07:42:18;;;;;;;;;3.25;3.25;;;;;14.56;65.36;100638.56;3059722;22;45626;-82
2022/11/03 07:43:34;;;;;;;;;4.00;3.00;;;;;14.58;65.30;100649.06;3060193;22;45179;-82
2022/11/03 07:44:46;;;;;;;;;5.75;4.50;;;;;14.61;65.18;100641.84;3043018;22;47299;-82
2022/11/03 07:45:59;;;;;;;;;4.25;4.00;;;;;14.61;65.49;100644.50;3047877;22;45143;-82
2022/11/03 07:47:17;;;;;;;;;3.50;3.00;;;;;14.61;65.32;100639.19;3059011;22;45247;-82
2022/11/03 07:48:35;;;;;;;;;4.00;4.00;;;;;14.63;65.13;100647.91;3043342;22;45184;-82
2022/11/03 07:49:46;;;;;;;;;5.25;4.00;;;;;14.63;65.03;100639.97;3049524;22;46463;-82
2022/11/03 07:51:01;;;;;;;;;4.50;3.50;;;;;14.65;65.19;100644.31;3059789;22;45285;-82
2022/11/03 07:52:15;;;;;;;;;5.00;4.50;;;;;14.67;64.92;100647.75;3058892;22;46037;-82
2022/11/03 07:53:48;;;;;;;;;2.00;2.00;;;;;14.67;65.12;100637.19;3059143;22;45285;-82
2022/11/03 07:54:58;;;;;;;;;4.75;3.75;;;;;14.67;65.36;100637.19;3059803;22;46471;-82
2022/11/03 07:56:40;;;;;;;;;3.00;3.00;;;;;14.67;65.10;100631.88;3042291;22;45331;-82
2022/11/03 07:57:50;;;;;;;;;4.00;2.50;;;;;14.68;64.90;100633.56;3053718;22;45457;-82
2022/11/03 07:59:13;;;;;;;;;4.50;4.50;;;;;14.69;65.13;100632.66;3059913;22;45077;-82
2022/11/03 08:00:24;;;;;;;;;4.00;4.00;;;;;14.68;64.96;100628.28;3043122;22;47312;-82
2022/11/03 08:01:39;;;;;;;;;4.50;3.00;;;;;14.69;64.65;100630.00;3048058;22;45299;-82
2022/11/03 08:02:55;;;;;;;;;5.00;3.75;;;;;14.69;64.70;100632.66;3059037;22;46224;-82
2022/11/03 08:04:10;;;;;;;;;2.75;2.75;;;;;14.68;65.28;100631.78;3059032;22;45284;-82
2022/11/03 08:05:21;;;;;;;;;5.00;5.00;;;;;14.69;64.89;100622.91;3059311;22;46557;-82
2022/11/03 08:06:31;;;;;;;;;3.50;3.50;;;;;14.69;64.84;100625.56;3058265;22;45204;-82
2022/11/03 08:07:42;;;;;;;;;5.50;4.00;;;;;14.69;65.00;100620.25;3042492;22;47940;-82
2022/11/03 08:08:52;;;;;;;;;4.25;4.25;;;;;14.69;64.79;100619.44;3047645;22;45156;-82
2022/11/03 08:10:03;;;;;;;;;5.00;5.00;;;;;14.69;64.88;100616.78;3059638;22;46041;-82
2022/11/03 08:11:14;;;;;;;;;2.75;2.25;;;;;14.67;64.90;100614.19;3059126;22;45243;-84
2022/11/03 08:12:24;;;;;;;;;5.75;3.25;;;;;14.67;65.18;100608.91;3058951;22;46054;-83
2022/11/03 08:13:34;;;;;;;;;4.25;3.00;;;;;14.70;64.80;100611.41;3059873;22;45148;-82
2022/11/03 08:14:45;;;;;;;;;5.50;2.25;;;;;14.71;65.02;100610.47;3059225;22;46104;-82
2022/11/03 08:15:56;;;;;;;;;6.00;4.00;;;;;14.73;64.74;100613.03;3059558;22;45230;-82
2022/11/03 08:17:07;;;;;;;;;2.75;2.00;;;;;14.74;64.58;100612.94;3059611;22;45422;-82
2022/11/03 08:18:17;;;;;;;;;4.00;4.00;;;;;14.78;64.43;100613.66;3043206;22;45303;-82
2022/11/03 08:19:27;;;;;;;;;3.00;3.00;;;;;14.78;64.79;100611.00;3032022;22;47958;-82
2022/11/03 08:20:38;;;;;;;;;5.00;5.00;;;;;14.82;64.40;100604.59;3048183;22;44645;-82
2022/11/03 08:21:48;;;;;;;;;5.25;4.00;;;;;14.83;64.39;100611.63;3043064;22;46877;-82
2022/11/03 08:22:58;;;;;;;;;5.25;4.25;;;;;14.85;64.49;100607.13;3032070;22;45219;-82
2022/11/03 08:24:09;;;;;;;;;3.25;3.25;;;;;14.88;64.75;100599.94;3047037;22;46008;-82
2022/11/03 08:25:19;;;;;;;;;4.00;2.00;;;;;14.90;64.27;100595.44;3059851;22;45300;-82
2022/11/03 08:26:29;;;;;;;;;3.00;3.00;;;;;14.94;63.97;100594.31;3058391;22;45168;-82
2022/11/03 08:27:39;;;;;;;;;4.25;4.00;;;;;14.96;64.41;100585.34;3059978;22;44475;-82
2022/11/03 08:28:51;;;;;;;;;4.25;4.25;;;;;15.00;64.04;100588.72;3059530;22;45417;-82
2022/11/03 08:30:01;;;;;;;;;5.25;4.00;;;;;15.01;64.31;100584.28;3059776;22;45172;-82
2022/11/03 08:31:12;;;;;;;;;5.00;4.00;;;;;15.04;63.83;100589.38;3043052;22;47839;-82
2022/11/03 08:32:22;;;;;;;;;8.25;4.00;;;;;15.06;63.87;100583.06;3047578;22;45160;-82
2022/11/03 08:33:34;;;;;;;;;3.50;3.50;;;;;15.11;63.26;100592.56;3058389;22;47278;-82
2022/11/03 08:34:44;;;;;;;;;6.00;4.25;;;;;15.11;63.67;100595.22;3058435;22;44581;-82
2022/11/03 08:35:54;;;;;;;;;4.00;2.25;;;;;15.12;63.86;100597.78;3043045;22;47210;-82
2022/11/03 08:37:05;;;;;;;;;5.75;4.00;;;;;15.15;63.88;100602.03;3032201;22;44648;-82
2022/11/03 08:38:15;;;;;;;;;6.00;3.50;;;;;15.16;63.83;100604.59;3032127;22;46935;-82
2022/11/03 08:39:25;;;;;;;;;2.00;0.25;;;;;15.20;63.90;100597.34;3048323;22;44687;-82
2022/11/03 08:40:36;;;;;;;;;5.75;4.25;;;;;15.23;63.69;100591.91;3059396;22;45363;-82
2022/11/03 08:41:46;;;;;;;;;4.00;3.00;;;;;15.25;64.06;100597.97;3042906;22;44703;-82
2022/11/03 08:42:56;;;;;;;;;3.50;3.00;;;;;15.30;63.61;100593.28;3031997;22;47323;-82
2022/11/03 08:44:07;;;;;;;;;3.00;2.00;;;;;15.32;63.54;100579.94;3047526;22;44759;-82
2022/11/03 08:45:17;;;;;;;;;4.50;3.00;;;;;15.36;63.11;100580.63;3059607;22;45364;-82
2022/11/03 08:46:27;;;;;;;;;10.50;3.00;;;;;15.38;63.13;100584.03;3059440;22;44617;-82
2022/11/03 08:47:38;;;;;;;;;3.25;2.25;;;;;15.39;63.01;100570.69;3042749;22;48204;-82
2022/11/03 08:48:48;;;;;;;;;4.75;4.25;;;;;15.44;63.03;100570.44;3048220;22;45174;-82
2022/11/03 08:49:59;;;;;;;;;4.00;2.25;;;;;15.44;63.20;100556.34;3059524;22;46519;-82
2022/11/03 08:51:12;;;;;;;;;7.75;4.50;;;;;15.47;63.00;100562.34;3043155;22;44600;-82
2022/11/03 08:52:23;;;;;;;;;5.75;3.50;;;;;15.51;62.81;100560.34;3048468;22;46096;-82
2022/11/03 08:53:34;;;;;;;;;3.00;3.00;;;;;15.51;63.07;100547.97;3042709;22;45141;-82
2022/11/03 08:54:44;;;;;;;;;3.00;2.00;;;;;15.55;62.91;100553.09;3032485;22;47139;-82
2022/11/03 08:55:55;;;;;;;;;3.25;3.25;;;;;15.56;62.83;100545.03;3031419;22;44717;-82
2022/11/03 08:57:05;;;;;;;;;4.50;4.50;;;;;15.59;62.16;100539.59;3047765;22;46184;-82
2022/11/03 08:58:15;;;;;;;;;5.25;4.00;;;;;15.62;62.62;100541.19;3059616;22;45618;-82
2022/11/03 08:59:26;;;;;;;;;5.00;5.00;;;;;15.67;62.72;100530.34;3059582;22;45287;-82
2022/11/03 09:00:36;;;;;;;;;5.00;4.00;;;;;15.70;62.84;100533.69;3059758;22;45277;-82
2022/11/03 09:01:46;;;;;;;;;3.50;2.50;;;;;15.73;62.84;100536.13;3042902;22;47319;-82
2022/11/03 09:02:57;;;;;;;;;4.25;3.50;;;;;15.75;62.40;100538.69;3048017;22;45234;-82
2022/11/03 09:04:07;;;;;;;;;4.00;3.75;;;;;15.77;62.37;100542.13;3058723;22;45509;-82
2022/11/03 09:05:17;;;;;;;;;1.75;1.00;;;;;15.78;62.37;100524.44;3059837;22;45171;-82
2022/11/03 09:06:28;;;;;;;;;2.00;2.00;;;;;15.81;62.31;100526.88;3059572;22;46121;-82
2022/11/03 09:07:39;;;;;;;;;3.75;3.75;;;;;15.85;62.23;100525.78;3059694;22;45189;-82
2022/11/03 09:08:49;;;;;;;;;4.50;3.75;;;;;15.84;62.57;100505.50;3059282;22;46181;-81
2022/11/03 09:09:59;;;;;;;;;4.00;3.00;;;;;15.84;62.39;100510.81;3058386;22;45167;-82
2022/11/03 09:11:10;;;;;;;;;5.50;3.50;;;;;15.85;62.06;100507.22;3058356;22;45243;-81
2022/11/03 09:12:20;;;;;;;;;3.75;3.00;;;;;15.87;62.36;100507.97;3042805;22;45155;-82
2022/11/03 09:13:31;;;;;;;;;4.50;2.75;;;;;15.88;62.13;100504.38;3047611;22;46301;-82
2022/11/03 09:14:42;;;;;;;;;5.00;4.50;;;;;15.88;62.31;100507.00;3059638;22;45201;-82
2022/11/03 09:15:52;;;;;;;;;4.00;4.00;;;;;15.90;62.08;100504.28;3058294;22;48109;-82
2022/11/03 09:17:02;;;;;;;;;2.25;2.25;;;;;15.91;62.07;100500.69;3059196;22;45383;-82
2022/11/03 09:18:13;;;;;;;;;3.75;2.75;;;;;15.91;61.50;100504.19;3059304;22;46297;-82
2022/11/03 09:19:23;;;;;;;;;3.00;3.00;;;;;15.91;61.68;100498.03;3043096;22;45123;-82
2022/11/03 09:20:33;;;;;;;;;4.50;3.25;;;;;15.92;61.76;100491.81;3047856;22;45188;-82
2022/11/03 09:21:44;;;;;;;;;5.25;3.75;;;;;15.93;61.98;100488.19;3059628;22;45135;-82
2022/11/03 09:22:54;;;;;;;;;3.00;3.00;;;;;15.94;61.75;100484.59;3042849;22;47076;-82
2022/11/03 09:24:05;;;;;;;;;5.75;4.00;;;;;15.92;61.74;100467.94;3046977;22;44596;-87
2022/11/03 09:25:15;;;;;;;;;3.50;2.75;;;;;15.94;61.81;100469.56;3041830;22;46901;-87
2022/11/03 09:26:26;;;;;;;;;3.50;2.75;;;;;15.94;61.43;100468.69;3031959;22;45156;-87
2022/11/03 09:27:36;;;;;;;;;3.25;3.25;;;;;15.94;61.83;100463.41;3047174;22;47186;-87
2022/11/03 09:28:48;;;;;;;;;3.00;3.00;;;;;15.94;61.58;100458.97;3059227;22;45291;-87
2022/11/03 09:29:58;;;;;;;;;4.00;3.25;;;;;15.95;61.55;100460.66;3042797;22;48079;-87
2022/11/03 09:31:09;;;;;;;;;5.75;3.00;;;;;15.95;61.75;100457.16;3047477;22;45273;-87
2022/11/03 09:32:19;;;;;;;;;2.00;2.00;;;;;15.95;61.50;100457.16;3042934;22;47390;-87
2022/11/03 09:33:30;;;;;;;;;5.00;4.00;;;;;15.94;62.07;100453.66;3047416;22;44563;-87
2022/11/03 09:34:40;;;;;;;;;6.00;4.25;;;;;15.92;61.25;100446.75;3042468;22;47244;-87
2022/11/03 09:35:50;;;;;;;;;3.00;2.75;;;;;15.91;61.53;100453.84;3048176;22;44557;-87
2022/11/03 09:37:01;;;;;;;;;3.50;2.75;;;;;15.92;61.19;100438.78;3059397;22;45179;-87
2022/11/03 09:38:11;;;;;;;;;4.00;3.00;;;;;15.90;61.38;100436.22;3058391;22;45194;-88
2022/11/03 09:39:21;;;;;;;;;3.75;3.25;;;;;15.92;61.61;100444.09;3043024;22;46886;-87
2022/11/03 09:40:33;;;;;;;;;3.00;3.00;;;;;15.88;61.55;100438.13;3032136;22;44644;-86
2022/11/03 09:41:44;;;;;;;;;6.00;3.00;;;;;15.89;61.95;100445.13;3041302;22;47582;-87
2022/11/03 09:42:56;;;;;;;;;5.25;3.00;;;;;15.90;61.55;100441.50;3047003;22;45147;-87
2022/11/03 09:44:06;;;;;;;;;4.00;3.00;;;;;15.91;61.52;100445.88;3042953;22;46310;-87
2022/11/03 09:45:17;;;;;;;;;4.00;4.00;;;;;15.93;61.29;100443.13;3031710;22;44696;-87
2022/11/03 09:46:28;;;;;;;;;3.50;3.25;;;;;15.92;61.44;100442.31;3046545;22;48007;-87
2022/11/03 09:47:41;;;;;;;;;3.25;3.00;;;;;15.92;61.38;100431.69;3058696;22;45380;-87
2022/11/03 09:48:53;;;;;;;;;2.75;2.75;;;;;15.93;61.59;100436.03;3057866;22;46906;-88
2022/11/03 09:50:05;;;;;;;;;2.00;2.00;;;;;15.96;61.27;100430.56;3059043;22;45191;-87
2022/11/03 09:51:19;;;;;;;;;2.50;2.50;;;;;15.98;61.60;100428.66;3058887;22;45274;-87
2022/11/03 09:52:30;;;;;;;;;4.50;4.25;;;;;15.98;61.46;100422.50;3043117;22;45263;-87
2022/11/03 09:53:41;;;;;;;;;4.50;3.25;;;;;16.02;61.26;100418.75;3047621;22;46078;-87
2022/11/03 09:54:55;;;;;;;;;4.25;3.50;;;;;16.04;60.54;100421.28;3058524;22;45196;-87
2022/11/03 09:56:09;;;;;;;;;4.00;3.00;;;;;16.03;61.47;100425.72;3041997;22;47342;-87
2022/11/03 09:57:20;;;;;;;;;3.25;2.25;;;;;16.06;61.09;100422.94;3047769;22;45168;-87
2022/11/03 09:58:32;;;;;;;;;4.00;3.50;;;;;16.08;60.72;100430.78;3042950;22;46957;-87
2022/11/03 09:59:45;;;;;;;;;3.00;3.00;;;;;16.07;60.88;100415.84;3048198;22;45185;-88
2022/11/03 10:00:55;;;;;;;;;3.50;3.50;;;;;16.08;60.81;100412.22;3057908;22;47235;-88
2022/11/03 10:02:20;;;;;;;;;5.25;3.25;;;;;16.08;61.39;100407.78;3058439;22;45294;-87
2022/11/03 10:03:31;;;;;;;;;3.25;2.25;;;;;16.11;61.41;100414.69;3042567;22;47088;-90
2022/11/03 10:04:41;;;;;;;;;3.00;2.25;;;;;16.12;61.15;100413.75;3046687;22;45112;-86
2022/11/03 10:05:52;;;;;;;;;4.00;4.00;;;;;16.14;60.75;100411.00;3040270;22;47179;-87
2022/11/03 10:07:06;;;;;;;;;4.25;3.50;;;;;16.14;60.82;100411.84;3031650;22;45322;-89
2022/11/03 10:08:23;;;;;;;;;4.00;3.00;;;;;16.17;60.74;100402.84;3030778;22;48299;-91
2022/11/03 10:09:33;;;;;;;;;3.75;3.75;;;;;16.16;60.64;100399.34;3048997;22;45200;-87
2022/11/03 10:10:43;;;;;;;;;3.25;3.25;;;;;16.19;60.64;100393.88;3056976;22;45341;-91
2022/11/03 10:11:54;;;;;;;;;4.50;4.00;;;;;16.20;60.83;100392.91;3041820;22;45190;-89
2022/11/03 10:13:07;;;;;;;;;4.00;4.00;;;;;16.23;60.74;100393.66;3032104;22;48127;-91
2022/11/03 10:14:19;;;;;;;;;5.25;4.00;;;;;16.24;60.39;100395.38;3048142;22;45416;-88
2022/11/03 10:15:29;;;;;;;;;4.00;4.00;;;;;16.25;60.28;100399.72;3042364;22;48153;-90
2022/11/03 10:16:41;;;;;;;;;4.75;3.00;;;;;16.25;60.46;100394.44;3032200;22;44634;-91
2022/11/03 10:17:54;;;;;;;;;4.00;4.00;;;;;16.27;60.14;100389.88;3032569;22;46433;-90
2022/11/03 10:19:07;;;;;;;;;4.25;4.00;;;;;16.27;59.72;100388.06;3046288;22;45376;-90
2022/11/03 10:20:20;;;;;;;;;7.75;4.00;;;;;16.28;59.96;100386.25;3058683;22;46518;-92
2022/11/03 10:21:34;;;;;;;;;2.50;2.50;;;;;16.28;60.06;100376.50;3058988;22;45088;-91
2022/11/03 10:22:46;;;;;;;;;4.00;4.00;;;;;16.31;60.08;100383.44;3042750;22;47417;-89
2022/11/03 10:23:56;;;;;;;;;4.25;3.25;;;;;16.30;60.07;100387.88;3048246;22;45242;-90
2022/11/03 10:25:26;;;;;;;;;5.75;4.50;;;;;16.31;59.90;100373.69;3042360;22;47958;-90
2022/11/03 10:26:51;;;;;;;;;3.75;3.75;;;;;16.30;59.78;100373.75;3051882;22;45188;-91
2022/11/03 10:28:12;;;;;;;;;6.75;4.75;;;;;16.31;59.99;100371.03;3059233;22;45993;-91
2022/11/03 10:29:27;;;;;;;;;4.75;3.75;;;;;16.33;59.47;100370.91;3043082;22;44491;-90
2022/11/03 10:30:50;;;;;;;;;4.25;3.50;;;;;16.31;59.66;100355.13;3042681;22;47232;-88
2022/11/03 10:32:01;;;;;;;;;4.50;4.50;;;;;16.34;59.13;100358.50;3048370;22;45376;-89
2022/11/03 10:33:37;;;;;;;;;3.00;2.25;;;;;16.34;59.83;100369.97;3039250;22;47114;-89
2022/11/03 10:34:47;;;;;;;;;4.00;3.00;;;;;16.35;59.28;100361.06;3037014;22;45310;-90
2022/11/03 10:36:00;;;;;;;;;4.25;2.00;;;;;16.39;59.80;100362.59;3031841;22;48185;-91
2022/11/03 10:37:19;;;;;;;;;7.50;3.25;;;;;16.45;59.63;100363.13;3031708;22;45133;-92
2022/11/03 10:38:35;;;;;;;;;4.00;4.00;;;;;16.50;59.74;100353.06;3048165;22;47150;-90
2022/11/03 10:39:46;;;;;;;;;5.00;3.00;;;;;16.55;59.45;100361.59;3043018;22;45318;-92
2022/11/03 10:41:12;;;;;;;;;4.50;2.00;;;;;16.59;59.12;100349.84;3047098;22;47513;-91
2022/11/03 10:42:30;;;;;;;;;4.50;3.00;;;;;16.63;59.11;100355.78;3043016;22;45167;-91
2022/11/03 10:43:43;;;;;;;;;6.25;3.50;;;;;16.65;57.92;100352.09;3049646;22;46301;-91
2022/11/03 10:45:08;;;;;;;;;4.75;4.00;;;;;16.66;58.02;100355.59;3059202;22;45117;-92
2022/11/03 10:46:23;;;;;;;;;4.00;3.00;;;;;16.67;58.74;100343.19;3057384;22;48192;-92
2022/11/03 10:47:34;;;;;;;;;3.75;2.50;;;;;16.71;57.99;100344.69;3043293;22;45273;-91
2022/11/03 10:49:18;;;;;;;;;4.25;4.00;;;;;16.74;57.65;100345.31;3047436;22;45457;-93
2022/11/03 10:50:29;;;;;;;;;3.75;3.00;;;;;16.78;58.74;100340.66;3042888;22;45209;-91
2022/11/03 10:51:41;;;;;;;;;4.25;2.50;;;;;16.83;58.75;100337.69;3042738;22;47346;-91
2022/11/03 10:52:53;;;;;;;;;4.75;3.00;;;;;16.87;57.69;100344.50;3048407;22;44628;-92
2022/11/03 10:54:08;;;;;;;;;4.00;4.00;;;;;16.89;58.30;100344.41;3058770;22;47161;-92
2022/11/03 10:55:21;;;;;;;;;5.00;4.00;;;;;16.91;58.42;100337.19;3043973;22;44734;-91
2022/11/03 10:56:32;;;;;;;;;3.25;3.25;;;;;16.92;58.58;100338.88;3032087;22;47078;-92
2022/11/03 10:57:42;;;;;;;;;4.00;3.00;;;;;16.94;57.56;100331.69;3048094;22;45167;-91
2022/11/03 10:58:54;;;;;;;;;4.00;4.00;;;;;16.96;57.54;100332.44;3043201;22;47192;-92
2022/11/03 11:00:05;;;;;;;;;2.75;2.75;;;;;16.95;57.58;100320.97;3048927;22;45120;-91
2022/11/03 11:01:15;;;;;;;;;5.75;4.00;;;;;16.96;58.02;100312.03;3043361;22;47013;-92
2022/11/03 11:02:30;;;;;;;;;4.00;2.50;;;;;17.02;57.95;100324.06;3032619;22;45469;-92
2022/11/03 11:03:43;;;;;;;;;4.00;3.25;;;;;17.05;58.04;100318.53;3033501;22;47133;-91
2022/11/03 11:05:00;;;;;;;;;3.25;3.00;;;;;17.12;57.38;100331.38;3048765;22;44584;-92
2022/11/03 11:06:20;;;;;;;;;2.00;2.00;;;;;17.17;57.80;100331.97;3043381;22;47443;-93
2022/11/03 11:07:41;;;;;;;;;5.00;3.00;;;;;17.23;57.90;100323.59;3034846;22;45250;-92
2022/11/03 11:08:53;;;;;;;;;3.25;3.25;;;;;17.28;57.52;100323.28;3051196;22;46485;-90
2022/11/03 11:10:13;;;;;;;;;6.00;2.50;;;;;17.32;57.88;100325.63;3043695;22;45344;-92
2022/11/03 11:11:23;;;;;;;;;5.00;3.00;;;;;17.37;57.56;100319.13;3033658;22;47346;-91
2022/11/03 11:12:34;;;;;;;;;2.75;2.00;;;;;17.41;57.18;100323.28;3047954;22;45222;-93
2022/11/03 11:13:44;;;;;;;;;3.00;3.00;;;;;17.42;57.16;100323.19;3054059;22;45278;-92
2022/11/03 11:14:59;;;;;;;;;3.75;3.50;;;;;17.49;56.88;100312.97;3041623;22;45778;-91
2022/11/03 11:16:49;;;;;;;;;4.00;2.50;;;;;17.51;56.68;100319.03;3043095;22;46334;-92
2022/11/03 11:17:59;;;;;;;;;3.25;3.25;;;;;17.53;57.14;100313.63;3056158;22;45183;-92
2022/11/03 11:19:10;;;;;;;;;3.00;2.00;;;;;17.55;57.28;100301.06;3043167;22;47102;-92
2022/11/03 11:20:32;;;;;;;;;2.75;2.75;;;;;17.62;57.13;100306.81;3043057;22;44668;-91
2022/11/03 11:21:42;;;;;;;;;5.00;3.50;;;;;17.65;57.19;100301.28;3034921;22;47888;-90
2022/11/03 11:22:52;;;;;;;;;4.25;3.25;;;;;17.65;55.92;100302.13;3032633;22;45216;-92
2022/11/03 11:24:03;;;;;;;;;3.25;3.00;;;;;17.65;56.13;100303.94;3047655;22;45231;-91
2022/11/03 11:25:14;;;;;;;;;1.50;1.50;;;;;17.66;56.39;100290.53;3060129;22;45174;-91
2022/11/03 11:26:24;;;;;;;;;3.50;2.25;;;;;17.65;56.39;100296.81;3058189;22;47484;-91
2022/11/03 11:27:34;;;;;;;;;3.00;2.50;;;;;17.65;56.30;100294.16;3042907;22;45337;-92
2022/11/03 11:29:08;;;;;;;;;5.00;3.25;;;;;17.66;56.49;100293.19;3030792;22;48252;-92
2022/11/03 11:30:18;;;;;;;;;3.75;3.00;;;;;17.66;56.34;100306.47;3037143;22;45350;-90
2022/11/03 11:31:33;;;;;;;;;6.00;3.75;;;;;17.64;56.37;100304.88;3031632;22;47108;-91
2022/11/03 11:32:43;;;;;;;;;3.75;2.25;;;;;17.63;55.91;100308.53;3048598;22;45136;-91
2022/11/03 11:34:15;;;;;;;;;4.00;3.00;;;;;17.58;56.78;100292.88;3059262;22;45308;-91
2022/11/03 11:35:26;;;;;;;;;4.00;3.75;;;;;17.56;58.13;100307.25;3043185;22;45306;-89
2022/11/03 11:36:41;;;;;;;;;5.00;5.00;;;;;17.49;58.72;100291.72;3047937;22;45294;-88
2022/11/03 11:37:53;;;;;;;;;4.50;3.50;;;;;17.43;58.17;100289.50;3042960;22;44542;-88
2022/11/03 11:39:25;;;;;;;;;2.00;2.00;;;;;17.40;59.69;100298.53;3043246;22;46953;-89
2022/11/03 11:40:36;;;;;;;;;2.75;2.75;;;;;17.37;59.66;100296.09;3053159;22;45287;-89
2022/11/03 11:42:15;;;;;;;;;3.50;3.00;;;;;17.32;59.51;100296.41;3059263;22;46242;-91
2022/11/03 11:43:27;;;;;;;;;3.00;3.00;;;;;17.28;59.06;100283.44;3042165;22;44751;-89
2022/11/03 11:46:21;;;;;;;;;3.25;2.00;;;;;17.24;59.18;100293.41;3051059;22;45352;-89
2022/11/03 11:47:47;;;;;;;;;1.00;1.00;;;;;17.21;59.30;100283.84;3043181;22;46751;-91
2022/11/03 11:48:58;;;;;;;;;3.50;3.25;;;;;17.19;59.70;100277.78;3051902;22;44669;-89
2022/11/03 11:50:14;;;;;;;;;4.00;3.00;;;;;17.18;59.46;100272.59;3059578;22;46319;-89
2022/11/03 11:51:24;;;;;;;;;6.50;4.50;;;;;17.14;60.95;100263.94;3059680;22;45089;-89
2022/11/03 11:52:46;;;;;;;;;3.25;2.00;;;;;17.14;60.93;100268.41;3042801;22;48476;-89
2022/11/03 11:53:56;;;;;;;;;5.75;4.00;;;;;17.09;60.99;100258.97;3033966;22;45280;-88
2022/11/03 11:55:20;;;;;;;;;4.00;4.00;;;;;17.07;60.67;100260.03;3047389;22;47970;-91
2022/11/03 11:56:31;;;;;;;;;4.25;4.00;;;;;17.08;61.65;100256.41;3057922;22;45514;-90